East Dickinson, New York
Current Conditions -  °F | °C
As of 11:53 PM on Monday 20 Oct 2014 (Local Time) from KMSS Reporting Station
Light Rain Light Rain  
Wind Chill: 42°   Ceiling: 6000
Heat Index: 44°   Visibility: 10mi
Dew Point: 44°   Wind: 5mph
Humidity: 100%   Direction: 60°ENE
Pressure: 29.91"   Gusts: NA
Location:  44.7201°N, 74.5365°W
Report Text: KMSS 210353Z AUTO 06004KT 10SM -RA OVC060 07/07 A2991 RMK AO2 RAB0255 SLP133 P0001 T00670067
Loading
Personal Weather Stations






























Interactive Weather Map
Tropical Storm Tracking
New forecast layout! Learn more

10-Day Weather Forecast

Advertisements
Track Severe Weather on mobile